Thunder radar more information blitzortung!


Radar de pluja more information rain snow radar


Visita la nostra xarxa de llocs de meteo:

Template documentation
and downloads

And another site



Wind From: 11-12-2017 11:00 Until: 14:59 warning for: Wind Level: Yellow info button

Pagina Historial Weather Underground text

Diari Resum Juny 15, 2017 Unitats:  Mètric    Imperial   Tant
« Previous Dia
SegĂźent Dia »
Diari Setmana Mensual Anual Personalitzada
  Maxima: Minima: Media:
Temperatura: 37.5 °C 19.6 °C 30.7 °C
Punt de rosada: 13.4 °C 4.3 °C 8.1 °C
Humitat: 50 % 15 % 26 %
Wind Speed: 19.5 km/h 0.0 km/h 6.6 km/h
RĂ fegues de vent: 19.5 km/h - -
Vent:- - South
Pression baro: 1015.8 hPa 1011.7 hPa -
Precipitacions: 0.0 mm    
Historical Graphs
 
 
Dades de taula per Juny 15, 2017
Temps Temperatura Punt de rosada Pression baro Vent Wind Speed RĂ fegues de vent Humitat Rainfall Rate (Hourly)
00:04 24.9 °C 6.1 °C 1012.8 hPa Calm     30 % 0.0 mm
00:05 20.0 °C 7.7 °C 1011.7 hPa Calm   3.2 km/h 45 % 0.0 mm
00:15 20.1 °C 8.1 °C 1011.7 hPa Calm     46 % 0.0 mm
00:25 20.1 °C 8.4 °C 1012.8 hPa Calm     47 % 0.0 mm
00:35 20.1 °C 8.4 °C 1012.8 hPa Calm     47 % 0.0 mm
00:45 20.3 °C 8.6 °C 1012.8 hPa WNW 1.6 km/h   47 % 0.0 mm
00:55 20.4 °C 8.7 °C 1012.8 hPa NW 1.6 km/h 1.6 km/h 47 % 0.0 mm
01:05 20.2 °C 8.8 °C 1012.8 hPa North 1.6 km/h 3.2 km/h 48 % 0.0 mm
01:15 19.9 °C 8.9 °C 1012.8 hPa Calm     49 % 0.0 mm
01:25 19.7 °C 8.7 °C 1012.8 hPa Calm     49 % 0.0 mm
01:35 19.7 °C 8.7 °C 1012.8 hPa Calm     49 % 0.0 mm
01:45 19.6 °C 8.6 °C 1012.8 hPa Calm     49 % 0.0 mm
01:55 19.7 °C 8.7 °C 1013.8 hPa WNW 1.6 km/h 1.6 km/h 49 % 0.0 mm
02:05 19.9 °C 9.2 °C 1013.8 hPa Calm   3.2 km/h 50 % 0.0 mm
02:15 20.0 °C 9.3 °C 1013.8 hPa Calm   1.6 km/h 50 % 0.0 mm
02:25 20.3 °C 9.6 °C 1013.8 hPa Calm   3.2 km/h 50 % 0.0 mm
02:35 20.4 °C 9.6 °C 1013.8 hPa NE 1.6 km/h 4.8 km/h 50 % 0.0 mm
02:45 20.5 °C 9.4 °C 1013.8 hPa NE 3.2 km/h 3.2 km/h 49 % 0.0 mm
02:55 20.6 °C 9.5 °C 1013.8 hPa SW 1.6 km/h 3.2 km/h 49 % 0.0 mm
03:05 20.9 °C 9.8 °C 1013.8 hPa SW 1.6 km/h 3.2 km/h 49 % 0.0 mm
03:15 21.5 °C 10.0 °C 1013.8 hPa Calm   3.2 km/h 48 % 0.0 mm
03:25 21.9 °C 10.1 °C 1012.8 hPa SW 3.2 km/h 3.2 km/h 47 % 0.0 mm
03:35 22.5 °C 10.6 °C 1013.8 hPa SW 1.6 km/h 1.6 km/h 47 % 0.0 mm
03:45 23.0 °C 10.8 °C 1013.8 hPa SW 1.6 km/h 3.2 km/h 46 % 0.0 mm
03:55 23.5 °C 11.2 °C 1013.8 hPa WSW 1.6 km/h 3.2 km/h 46 % 0.0 mm
04:05 24.0 °C 11.3 °C 1014.8 hPa SW 1.6 km/h 3.2 km/h 45 % 0.0 mm
04:15 24.8 °C 11.7 °C 1014.8 hPa SW 1.6 km/h 3.2 km/h 44 % 0.0 mm
04:25 25.6 °C 12.1 °C 1014.8 hPa WSW 1.6 km/h 3.2 km/h 43 % 0.0 mm
04:35 27.0 °C 12.6 °C 1014.8 hPa NNW 1.6 km/h 3.2 km/h 41 % 0.0 mm
04:45 27.1 °C 12.7 °C 1014.8 hPa WSW 1.6 km/h 1.6 km/h 41 % 0.0 mm
04:55 27.6 °C 12.8 °C 1014.8 hPa South 1.6 km/h 3.2 km/h 40 % 0.0 mm
05:05 28.2 °C 12.9 °C 1014.8 hPa South 1.6 km/h 3.2 km/h 39 % 0.0 mm
05:15 28.8 °C 13.4 °C 1014.8 hPa SW 1.6 km/h 3.2 km/h 39 % 0.0 mm
05:25 29.4 °C 13.2 °C 1014.8 hPa Calm   3.2 km/h 37 % 0.0 mm
05:35 29.6 °C 12.9 °C 1013.8 hPa SSW 1.6 km/h 6.4 km/h 36 % 0.0 mm
05:45 29.7 °C 12.2 °C 1013.8 hPa SSW 3.2 km/h 4.8 km/h 34 % 0.0 mm
10:46 30.2 °C 12.6 °C 1013.8 hPa SSE 5.6 km/h 5.6 km/h 34 % 0.0 mm
10:51 30.5 °C 12.4 °C 1013.8 hPa East 5.6 km/h 5.6 km/h 33 % 0.0 mm
10:56 30.4 °C 11.8 °C 1013.8 hPa SE 7.4 km/h 7.4 km/h 32 % 0.0 mm
11:01 30.3 °C 12.2 °C 1013.8 hPa SE 6.1 km/h 6.1 km/h 33 % 0.0 mm
11:06 30.2 °C 11.7 °C 1013.8 hPa ESE 7.4 km/h 7.4 km/h 32 % 0.0 mm
11:11 30.3 °C 11.8 °C 1013.8 hPa East 5.6 km/h 5.6 km/h 32 % 0.0 mm
11:16 30.7 °C 12.1 °C 1013.8 hPa North 2.3 km/h 2.3 km/h 32 % 0.0 mm
11:21 30.8 °C 12.2 °C 1013.8 hPa NNE 3.7 km/h 3.7 km/h 32 % 0.0 mm
11:26 31.2 °C 12.1 °C 1013.8 hPa ENE 3.7 km/h 3.7 km/h 31 % 0.0 mm
11:31 31.3 °C 11.7 °C 1014.8 hPa SSE 5.6 km/h 5.6 km/h 30 % 0.0 mm
11:33 31.5 °C 11.8 °C 1014.8 hPa ESE 4.2 km/h 4.2 km/h 30 % 0.0 mm
11:38 31.8 °C 11.6 °C 1014.8 hPa ENE 5.6 km/h 5.6 km/h 29 % 0.0 mm
11:43 31.6 °C 11.4 °C 1014.8 hPa East 5.6 km/h 5.6 km/h 29 % 0.0 mm
11:48 31.4 °C 11.2 °C 1014.8 hPa ESE 9.3 km/h 9.3 km/h 29 % 0.0 mm
11:53 31.8 °C 11.6 °C 1014.8 hPa ESE 4.7 km/h 4.7 km/h 29 % 0.0 mm
11:58 32.2 °C 11.4 °C 1014.8 hPa NNE 5.6 km/h 5.6 km/h 28 % 0.0 mm
12:03 32.3 °C 10.9 °C 1014.8 hPa NNE 7.4 km/h 7.4 km/h 27 % 0.0 mm
12:08 32.8 °C 11.3 °C 1014.8 hPa SE 3.9 km/h 3.9 km/h 27 % 0.0 mm
12:13 32.7 °C 10.7 °C 1014.8 hPa SE 7.6 km/h 7.6 km/h 26 % 0.0 mm
12:18 32.9 °C 10.8 °C 1013.8 hPa East 3.7 km/h 3.7 km/h 26 % 0.0 mm
12:23 33.4 °C 10.1 °C 1013.8 hPa South 7.4 km/h 7.4 km/h 24 % 0.0 mm
12:28 32.8 °C 10.2 °C 1013.8 hPa NNE 9.3 km/h 9.3 km/h 25 % 0.0 mm
12:33 33.2 °C 9.9 °C 1013.8 hPa ENE 7.4 km/h 7.4 km/h 24 % 0.0 mm
12:38 33.2 °C 9.9 °C 1013.8 hPa ENE 3.7 km/h 3.7 km/h 24 % 0.0 mm
12:43 33.6 °C 10.2 °C 1013.8 hPa West 9.3 km/h 9.3 km/h 24 % 0.0 mm
12:48 33.5 °C 8.9 °C 1013.8 hPa East 13.0 km/h 13.0 km/h 22 % 0.0 mm
12:53 33.8 °C 9.1 °C 1013.8 hPa East 9.3 km/h 9.3 km/h 22 % 0.0 mm
12:58 33.9 °C 9.2 °C 1013.8 hPa ENE 7.6 km/h 7.6 km/h 22 % 0.0 mm
13:03 33.8 °C 9.1 °C 1013.8 hPa ESE 11.1 km/h 11.1 km/h 22 % 0.0 mm
13:08 33.8 °C 9.1 °C 1013.8 hPa ENE 9.3 km/h 9.3 km/h 22 % 0.0 mm
13:13 33.8 °C 8.4 °C 1013.8 hPa ESE 9.3 km/h 9.3 km/h 21 % 0.0 mm
13:18 33.7 °C 8.3 °C 1013.8 hPa ENE 9.3 km/h 9.3 km/h 21 % 0.0 mm
13:23 34.1 °C 8.7 °C 1013.8 hPa ENE 10.8 km/h 10.8 km/h 21 % 0.0 mm
13:28 34.2 °C 8.8 °C 1013.8 hPa ESE 9.3 km/h 9.3 km/h 21 % 0.0 mm
13:33 34.0 °C 7.9 °C 1013.8 hPa ESE 13.0 km/h 13.0 km/h 20 % 0.0 mm
13:38 33.8 °C 7.7 °C 1013.8 hPa ESE 13.0 km/h 13.0 km/h 20 % 0.0 mm
13:43 33.9 °C 8.5 °C 1013.8 hPa NNE 14.8 km/h 14.8 km/h 21 % 0.0 mm
13:48 34.2 °C 8.8 °C 1013.8 hPa ENE 13.0 km/h 13.0 km/h 21 % 0.0 mm
13:53 33.9 °C 7.1 °C 1013.8 hPa ESE 16.7 km/h 16.7 km/h 19 % 0.0 mm
13:58 34.0 °C 7.9 °C 1013.8 hPa NNE 11.1 km/h 11.1 km/h 20 % 0.0 mm
14:03 34.0 °C 7.1 °C 1013.8 hPa East 14.0 km/h 14.0 km/h 19 % 0.0 mm
14:08 34.0 °C 7.1 °C 1013.8 hPa ESE 15.6 km/h 15.6 km/h 19 % 0.0 mm
14:13 34.2 °C 7.3 °C 1013.8 hPa ESE 16.7 km/h 16.7 km/h 19 % 0.0 mm
14:18 34.4 °C 6.7 °C 1013.8 hPa ESE 18.5 km/h 18.5 km/h 18 % 0.0 mm
14:23 34.5 °C 7.5 °C 1013.8 hPa ESE 12.2 km/h 12.2 km/h 19 % 0.0 mm
14:25 34.5 °C 7.5 °C 1013.8 hPa East 13.0 km/h 13.0 km/h 19 % 0.0 mm
14:30 34.8 °C 7.0 °C 1013.8 hPa ESE 13.0 km/h 13.0 km/h 18 % 0.0 mm
14:35 34.5 °C 6.7 °C 1013.8 hPa ESE 14.8 km/h 14.8 km/h 18 % 0.0 mm
14:40 34.2 °C 5.7 °C 1013.8 hPa ENE 13.7 km/h 13.7 km/h 17 % 0.0 mm
14:45 34.4 °C 6.7 °C 1013.8 hPa ENE 13.0 km/h 13.0 km/h 18 % 0.0 mm
14:50 34.5 °C 5.9 °C 1013.8 hPa SE 13.0 km/h 13.0 km/h 17 % 0.0 mm
14:55 34.5 °C 5.1 °C 1013.8 hPa ESE 19.5 km/h 19.5 km/h 16 % 0.0 mm
15:00 34.5 °C 5.9 °C 1013.8 hPa East 9.3 km/h 9.3 km/h 17 % 0.0 mm
15:05 34.4 °C 4.9 °C 1013.8 hPa ESE 11.1 km/h 11.1 km/h 16 % 0.0 mm
15:10 34.7 °C 6.1 °C 1013.8 hPa NNW 18.5 km/h 18.5 km/h 17 % 0.0 mm
15:15 34.8 °C 6.2 °C 1013.8 hPa SE 16.7 km/h 16.7 km/h 17 % 0.0 mm
15:20 35.2 °C 4.7 °C 1013.8 hPa SE 9.3 km/h 9.3 km/h 15 % 0.0 mm
15:25 34.7 °C 5.2 °C 1013.8 hPa ESE 16.7 km/h 16.7 km/h 16 % 0.0 mm
15:30 34.7 °C 5.2 °C 1013.8 hPa East 17.2 km/h 17.2 km/h 16 % 0.0 mm
15:35 34.5 °C 5.1 °C 1013.8 hPa South 16.7 km/h 16.7 km/h 16 % 0.0 mm
15:40 34.7 °C 4.3 °C 1013.8 hPa ESE 16.7 km/h 16.7 km/h 15 % 0.0 mm
15:45 36.1 °C 7.2 °C 1013.8 hPa WSW 6.4 km/h 6.4 km/h 17 % 0.0 mm
15:50 36.4 °C 7.4 °C 1013.8 hPa WSW 5.6 km/h 5.6 km/h 17 % 0.0 mm
15:55 37.1 °C 8.8 °C 1013.8 hPa SSW 7.4 km/h 7.4 km/h 18 % 0.0 mm
16:00 37.3 °C 8.2 °C 1013.8 hPa West 4.7 km/h 4.7 km/h 17 % 0.0 mm
16:05 36.9 °C 7.8 °C 1013.8 hPa WNW 9.3 km/h 9.3 km/h 17 % 0.0 mm
16:10 37.2 °C 8.1 °C 1013.8 hPa SW 5.6 km/h 5.6 km/h 17 % 0.0 mm
16:15 36.8 °C 7.8 °C 1013.8 hPa SW 13.0 km/h 13.0 km/h 17 % 0.0 mm
16:20 36.7 °C 7.7 °C 1013.8 hPa South 9.3 km/h 9.3 km/h 17 % 0.0 mm
16:25 37.0 °C 7.9 °C 1013.8 hPa SSE 9.3 km/h 9.3 km/h 17 % 0.0 mm
16:30 36.7 °C 6.8 °C 1013.8 hPa SE 9.3 km/h 9.3 km/h 16 % 0.0 mm
16:35 37.1 °C 7.1 °C 1013.8 hPa SSE 5.6 km/h 5.6 km/h 16 % 0.0 mm
16:40 37.5 °C 7.4 °C 1013.8 hPa South 3.7 km/h 3.7 km/h 16 % 0.0 mm
16:45 37.2 °C 7.2 °C 1012.8 hPa SSW 6.9 km/h 6.9 km/h 16 % 0.0 mm
16:50 37.3 °C 7.3 °C 1012.8 hPa SW 9.3 km/h 9.3 km/h 16 % 0.0 mm
16:55 36.9 °C 6.9 °C 1012.8 hPa WSW 12.2 km/h 12.2 km/h 16 % 0.0 mm
17:00 37.1 °C 7.1 °C 1013.8 hPa SW 9.3 km/h 9.3 km/h 16 % 0.0 mm
17:05 36.9 °C 6.9 °C 1013.8 hPa SSW 5.8 km/h 5.8 km/h 16 % 0.0 mm
17:10 37.1 °C 7.1 °C 1013.8 hPa South 7.4 km/h 7.4 km/h 16 % 0.0 mm
17:15 37.5 °C 7.4 °C 1014.8 hPa South 7.4 km/h 7.4 km/h 16 % 0.0 mm
17:20 36.4 °C 5.6 °C 1014.8 hPa SW 9.3 km/h 9.3 km/h 15 % 0.0 mm
17:25 36.4 °C 5.6 °C 1014.8 hPa SSW 5.6 km/h 5.6 km/h 15 % 0.0 mm
17:30 36.1 °C 5.4 °C 1013.8 hPa SW 9.0 km/h 9.0 km/h 15 % 0.0 mm
17:35 35.8 °C 5.1 °C 1013.8 hPa South 3.7 km/h 3.7 km/h 15 % 0.0 mm
17:40 36.0 °C 5.3 °C 1013.8 hPa SW 9.3 km/h 9.3 km/h 15 % 0.0 mm
17:45 36.1 °C 5.4 °C 1013.8 hPa SSE 9.3 km/h 9.3 km/h 15 % 0.0 mm
17:50 35.8 °C 5.1 °C 1013.8 hPa NNE 7.4 km/h 7.4 km/h 15 % 0.0 mm
17:55 35.6 °C 5.0 °C 1013.8 hPa SSE 14.8 km/h 14.8 km/h 15 % 0.0 mm
18:00 35.8 °C 6.1 °C 1012.8 hPa West 9.3 km/h 9.3 km/h 16 % 0.0 mm
18:05 35.8 °C 6.1 °C 1012.8 hPa South 3.9 km/h 3.9 km/h 16 % 0.0 mm
18:07 35.9 °C 6.2 °C 1012.8 hPa South 4.7 km/h 4.7 km/h 16 % 0.0 mm
18:12 35.2 °C 5.6 °C 1012.8 hPa SW 9.3 km/h 9.3 km/h 16 % 0.0 mm
18:17 34.8 °C 6.2 °C 1013.8 hPa SSW 5.6 km/h 5.6 km/h 17 % 0.0 mm
18:22 34.6 °C 6.0 °C 1013.8 hPa West 6.4 km/h 6.4 km/h 17 % 0.0 mm
18:27 34.7 °C 6.1 °C 1013.8 hPa WSW 11.1 km/h 11.1 km/h 17 % 0.0 mm
18:32 34.5 °C 5.9 °C 1013.8 hPa WSW 9.5 km/h 9.5 km/h 17 % 0.0 mm
18:37 34.2 °C 5.7 °C 1013.8 hPa SW 9.3 km/h 9.3 km/h 17 % 0.0 mm
18:42 34.2 °C 5.7 °C 1013.8 hPa WSW 9.3 km/h 9.3 km/h 17 % 0.0 mm
18:47 33.9 °C 5.4 °C 1013.8 hPa WSW 9.3 km/h 9.3 km/h 17 % 0.0 mm
18:52 33.5 °C 5.1 °C 1013.8 hPa West 13.0 km/h 13.0 km/h 17 % 0.0 mm
18:57 33.3 °C 4.9 °C 1013.8 hPa WSW 11.1 km/h 11.1 km/h 17 % 0.0 mm
19:02 33.1 °C 4.8 °C 1013.8 hPa West 11.1 km/h 11.1 km/h 17 % 0.0 mm
19:07 32.9 °C 4.6 °C 1013.8 hPa SW 13.0 km/h 13.0 km/h 17 % 0.0 mm
19:12 32.6 °C 5.2 °C 1013.8 hPa SW 13.0 km/h 13.0 km/h 18 % 0.0 mm
19:17 32.5 °C 5.1 °C 1013.8 hPa WSW 11.1 km/h 11.1 km/h 18 % 0.0 mm
19:22 32.4 °C 5.1 °C 1013.8 hPa West 9.3 km/h 9.3 km/h 18 % 0.0 mm
19:27 32.2 °C 4.9 °C 1013.8 hPa West 7.4 km/h 7.4 km/h 18 % 0.0 mm
19:32 32.1 °C 4.8 °C 1013.8 hPa SW 11.1 km/h 11.1 km/h 18 % 0.0 mm
19:37 32.1 °C 4.8 °C 1013.8 hPa SW 7.4 km/h 7.4 km/h 18 % 0.0 mm
19:42 32.0 °C 4.7 °C 1013.8 hPa WSW 9.3 km/h 9.3 km/h 18 % 0.0 mm
19:47 32.0 °C 5.5 °C 1013.8 hPa SW 9.3 km/h 9.3 km/h 19 % 0.0 mm
19:52 31.8 °C 6.1 °C 1013.8 hPa SSW 9.3 km/h 9.3 km/h 20 % 0.0 mm
19:57 31.6 °C 6.6 °C 1013.8 hPa SW 9.3 km/h 9.3 km/h 21 % 0.0 mm
20:02 31.4 °C 6.4 °C 1013.8 hPa WSW 7.4 km/h 7.4 km/h 21 % 0.0 mm
20:07 31.3 °C 7.1 °C 1013.8 hPa SW 5.6 km/h 5.6 km/h 22 % 0.0 mm
20:12 31.1 °C 6.9 °C 1013.8 hPa SW 7.9 km/h 7.9 km/h 22 % 0.0 mm
20:17 31.0 °C 6.8 °C 1013.8 hPa SW 7.6 km/h 7.6 km/h 22 % 0.0 mm
20:22 30.9 °C 7.3 °C 1013.8 hPa SSW 7.4 km/h 7.4 km/h 23 % 0.0 mm
20:27 30.6 °C 7.1 °C 1013.8 hPa WSW 11.1 km/h 11.1 km/h 23 % 0.0 mm
20:32 30.5 °C 7.0 °C 1013.8 hPa WSW 5.6 km/h 5.6 km/h 23 % 0.0 mm
20:37 30.3 °C 6.8 °C 1013.8 hPa SW 5.8 km/h 5.8 km/h 23 % 0.0 mm
20:42 30.2 °C 6.8 °C 1013.8 hPa SSW 9.5 km/h 9.5 km/h 23 % 0.0 mm
20:47 30.1 °C 6.7 °C 1014.8 hPa West 9.3 km/h 9.3 km/h 23 % 0.0 mm
20:52 30.0 °C 7.2 °C 1014.8 hPa SW 7.6 km/h 7.6 km/h 24 % 0.0 mm
20:57 29.8 °C 7.1 °C 1014.8 hPa SW 5.6 km/h 5.6 km/h 24 % 0.0 mm
21:02 29.7 °C 7.6 °C 1014.8 hPa SW 5.8 km/h 5.8 km/h 25 % 0.0 mm
21:07 29.5 °C 7.4 °C 1014.8 hPa SW 7.4 km/h 7.4 km/h 25 % 0.0 mm
21:12 29.3 °C 7.2 °C 1014.8 hPa WSW 7.4 km/h 7.4 km/h 25 % 0.0 mm
21:17 29.2 °C 7.2 °C 1014.8 hPa SW 3.7 km/h 3.7 km/h 25 % 0.0 mm
21:22 29.1 °C 7.1 °C 1014.8 hPa SW 5.6 km/h 5.6 km/h 25 % 0.0 mm
21:27 29.0 °C 7.6 °C 1014.8 hPa WSW 2.3 km/h 2.3 km/h 26 % 0.0 mm
21:32 28.9 °C 7.4 °C 1014.8 hPa SW 3.7 km/h 3.7 km/h 26 % 0.0 mm
21:37 28.8 °C 7.9 °C 1014.8 hPa SW 1.9 km/h 1.9 km/h 27 % 0.0 mm
21:42 28.7 °C 7.8 °C 1014.8 hPa Calm     27 % 0.0 mm
21:47 28.6 °C 7.8 °C 1015.8 hPa Calm     27 % 0.0 mm
21:52 28.5 °C 7.7 °C 1015.8 hPa WSW 1.9 km/h 1.9 km/h 27 % 0.0 mm
21:57 28.4 °C 8.1 °C 1015.8 hPa West 1.9 km/h   28 % 0.0 mm
22:02 28.4 °C 8.1 °C 1015.8 hPa Calm     28 % 0.0 mm
22:07 28.3 °C 8.1 °C 1015.8 hPa NE 3.7 km/h 3.7 km/h 28 % 0.0 mm
22:12 28.2 °C 7.9 °C 1015.8 hPa NE 3.7 km/h 3.7 km/h 28 % 0.0 mm
22:17 28.0 °C 7.8 °C 1015.8 hPa NE 2.3 km/h 2.3 km/h 28 % 0.0 mm
22:22 28.0 °C 7.8 °C 1015.8 hPa NE 1.9 km/h 1.9 km/h 28 % 0.0 mm
22:27 28.0 °C 7.8 °C 1015.8 hPa Calm     28 % 0.0 mm
22:32 27.4 °C 7.3 °C 1015.8 hPa SW 5.6 km/h 5.6 km/h 28 % 0.0 mm
22:37 26.8 °C 7.3 °C 1015.8 hPa SW 3.7 km/h 3.7 km/h 29 % 0.0 mm
22:42 26.8 °C 7.3 °C 1015.8 hPa SW 3.7 km/h 3.7 km/h 29 % 0.0 mm
22:47 26.8 °C 7.8 °C 1015.8 hPa SW 3.7 km/h 3.7 km/h 30 % 0.0 mm
22:52 26.8 °C 7.8 °C 1015.8 hPa SW 1.9 km/h   30 % 0.0 mm
22:57 26.8 °C 7.8 °C 1015.8 hPa Calm     30 % 0.0 mm
23:02 26.8 °C 8.3 °C 1015.8 hPa Calm     31 % 0.0 mm
23:07 26.8 °C 8.3 °C 1015.8 hPa Calm     31 % 0.0 mm
23:12 26.9 °C 8.3 °C 1015.8 hPa West 2.3 km/h 2.3 km/h 31 % 0.0 mm
23:17 26.8 °C 8.3 °C 1015.8 hPa Calm     31 % 0.0 mm
23:22 26.7 °C 8.2 °C 1015.8 hPa Calm     31 % 0.0 mm
23:28 26.7 °C 8.6 °C 1015.8 hPa Calm     32 % 0.0 mm
23:33 26.6 °C 8.6 °C 1015.8 hPa West 1.9 km/h   32 % 0.0 mm
23:38 26.6 °C 8.6 °C 1015.8 hPa SW 4.2 km/h 4.2 km/h 32 % 0.0 mm
23:43 26.3 °C 8.3 °C 1015.8 hPa SW 3.7 km/h 3.7 km/h 32 % 0.0 mm
23:48 26.2 °C 8.2 °C 1015.8 hPa SW 5.6 km/h 5.6 km/h 32 % 0.0 mm
23:53 26.0 °C 8.5 °C 1015.8 hPa SW 3.7 km/h 3.7 km/h 33 % 0.0 mm
23:58 26.0 °C 8.5 °C 1015.8 hPa WSW 3.7 km/h 3.7 km/h 33 % 0.0 mm
Meteo Sesrovires
Elogis d' Weather Underground - 3.5 mb

Guio original per  Jim McMurry - jmcmurry@mwt.net Adaptat per a la plantilla per  Wim van der Kuil - Leuven-Template.eu

Trobareu la nostra informacio del temps tambe a:

Weather Underground

AWEKAS